May Valley, Colorado
Current Conditions -  °F | °C
As of 9:53 PM on Friday 24 Oct 2014 (Local Time) from KLAA Reporting Station
Clear Clear  
Wind Chill: 57°   Ceiling: Unl
Heat Index: 57°   Visibility: 10mi
Dew Point: 35°   Wind: 0mph
Humidity: 44%   Direction: NA
Pressure: 30.1"   Gusts: NA
Location:  37.885°N, 102.667°W
Report Text: KLAA 250353Z AUTO 00000KT 10SM CLR 14/02 A3010 RMK AO2 SLP163 T01390017
Loading
Personal Weather Stations






























Interactive Weather Map New forecast layout! Learn more

10-Day Weather Forecast

Advertisements
Track Severe Weather on mobile